sensor_id;sensor_type;location;lat;lon;timestamp;P1;durP1;ratioP1;P2;durP2;ratioP2
35699;SDS011;21818;51.078;12.108;2023-10-19T00:00:41;2.85;;;1.50;;
35699;SDS011;21818;51.078;12.108;2023-10-19T00:03:11;2.75;;;1.70;;
35699;SDS011;21818;51.078;12.108;2023-10-19T00:05:37;2.70;;;1.77;;
35699;SDS011;21818;51.078;12.108;2023-10-19T00:08:04;2.88;;;1.75;;
35699;SDS011;21818;51.078;12.108;2023-10-19T00:10:39;3.00;;;1.30;;
35699;SDS011;21818;51.078;12.108;2023-10-19T00:13:07;2.50;;;1.92;;
35699;SDS011;21818;51.078;12.108;2023-10-19T00:15:37;2.17;;;1.40;;
35699;SDS011;21818;51.078;12.108;2023-10-19T00:18:13;2.75;;;1.75;;
35699;SDS011;21818;51.078;12.108;2023-10-19T00:20:44;2.45;;;1.67;;
35699;SDS011;21818;51.078;12.108;2023-10-19T00:23:21;2.38;;;1.80;;
35699;SDS011;21818;51.078;12.108;2023-10-19T00:25:57;3.17;;;1.77;;
35699;SDS011;21818;51.078;12.108;2023-10-19T00:28:23;2.42;;;1.83;;
35699;SDS011;21818;51.078;12.108;2023-10-19T00:30:51;2.17;;;1.58;;
35699;SDS011;21818;51.078;12.108;2023-10-19T00:33:18;5.10;;;2.00;;
35699;SDS011;21818;51.078;12.108;2023-10-19T00:35:46;1.88;;;1.60;;
35699;SDS011;21818;51.078;12.108;2023-10-19T00:38:15;2.10;;;1.30;;
35699;SDS011;21818;51.078;12.108;2023-10-19T00:40:55;2.88;;;1.92;;
35699;SDS011;21818;51.078;12.108;2023-10-19T00:43:31;4.03;;;1.88;;
35699;SDS011;21818;51.078;12.108;2023-10-19T00:46:01;2.80;;;1.67;;
35699;SDS011;21818;51.078;12.108;2023-10-19T00:48:35;2.58;;;2.00;;
35699;SDS011;21818;51.078;12.108;2023-10-19T00:51:01;2.45;;;1.70;;
35699;SDS011;21818;51.078;12.108;2023-10-19T00:53:51;2.38;;;1.60;;
35699;SDS011;21818;51.078;12.108;2023-10-19T00:56:19;2.38;;;1.60;;
35699;SDS011;21818;51.078;12.108;2023-10-19T00:58:48;2.08;;;1.55;;
35699;SDS011;21818;51.078;12.108;2023-10-19T01:01:19;2.17;;;1.77;;
35699;SDS011;21818;51.078;12.108;2023-10-19T01:03:49;4.82;;;1.90;;
35699;SDS011;21818;51.078;12.108;2023-10-19T01:06:17;3.08;;;1.33;;
35699;SDS011;21818;51.078;12.108;2023-10-19T01:08:45;2.75;;;1.70;;
35699;SDS011;21818;51.078;12.108;2023-10-19T01:11:11;3.42;;;2.05;;
35699;SDS011;21818;51.078;12.108;2023-10-19T01:13:40;3.05;;;1.77;;
35699;SDS011;21818;51.078;12.108;2023-10-19T01:16:13;2.38;;;1.60;;
35699;SDS011;21818;51.078;12.108;2023-10-19T01:18:49;2.97;;;1.90;;
35699;SDS011;21818;51.078;12.108;2023-10-19T01:21:22;3.25;;;1.67;;
35699;SDS011;21818;51.078;12.108;2023-10-19T01:23:52;5.97;;;1.52;;
35699;SDS011;21818;51.078;12.108;2023-10-19T01:26:18;2.13;;;1.50;;
35699;SDS011;21818;51.078;12.108;2023-10-19T01:28:50;3.15;;;1.80;;
35699;SDS011;21818;51.078;12.108;2023-10-19T01:31:25;5.07;;;3.10;;
35699;SDS011;21818;51.078;12.108;2023-10-19T01:33:54;2.95;;;1.92;;
35699;SDS011;21818;51.078;12.108;2023-10-19T01:36:24;2.15;;;1.50;;
35699;SDS011;21818;51.078;12.108;2023-10-19T01:38:50;3.42;;;1.90;;
35699;SDS011;21818;51.078;12.108;2023-10-19T01:41:19;2.22;;;1.40;;
35699;SDS011;21818;51.078;12.108;2023-10-19T01:43:46;2.17;;;1.38;;
35699;SDS011;21818;51.078;12.108;2023-10-19T01:46:14;3.28;;;1.80;;
35699;SDS011;21818;51.078;12.108;2023-10-19T01:48:47;2.75;;;1.60;;
35699;SDS011;21818;51.078;12.108;2023-10-19T01:51:18;1.75;;;1.55;;
35699;SDS011;21818;51.078;12.108;2023-10-19T01:53:45;1.70;;;1.35;;
35699;SDS011;21818;51.078;12.108;2023-10-19T01:56:11;2.35;;;1.40;;
35699;SDS011;21818;51.078;12.108;2023-10-19T01:58:40;3.72;;;1.88;;
35699;SDS011;21818;51.078;12.108;2023-10-19T02:01:07;3.42;;;1.63;;
35699;SDS011;21818;51.078;12.108;2023-10-19T02:03:37;2.22;;;1.30;;
35699;SDS011;21818;51.078;12.108;2023-10-19T02:06:09;2.15;;;1.67;;
35699;SDS011;21818;51.078;12.108;2023-10-19T02:09:01;2.95;;;1.60;;
35699;SDS011;21818;51.078;12.108;2023-10-19T02:11:34;5.65;;;1.50;;
35699;SDS011;21818;51.078;12.108;2023-10-19T02:14:03;2.50;;;1.60;;
35699;SDS011;21818;51.078;12.108;2023-10-19T02:16:33;2.83;;;1.90;;
35699;SDS011;21818;51.078;12.108;2023-10-19T02:19:02;3.58;;;1.85;;
35699;SDS011;21818;51.078;12.108;2023-10-19T02:21:27;3.33;;;1.98;;
35699;SDS011;21818;51.078;12.108;2023-10-19T02:23:57;2.95;;;1.70;;
35699;SDS011;21818;51.078;12.108;2023-10-19T02:26:23;4.57;;;1.70;;
35699;SDS011;21818;51.078;12.108;2023-10-19T02:28:51;3.75;;;1.83;;
35699;SDS011;21818;51.078;12.108;2023-10-19T02:31:17;2.67;;;1.70;;
35699;SDS011;21818;51.078;12.108;2023-10-19T02:33:47;1.98;;;1.50;;
35699;SDS011;21818;51.078;12.108;2023-10-19T02:38:58;2.72;;;1.70;;
35699;SDS011;21818;51.078;12.108;2023-10-19T02:41:26;4.83;;;1.80;;
35699;SDS011;21818;51.078;12.108;2023-10-19T02:43:55;2.42;;;2.00;;
35699;SDS011;21818;51.078;12.108;2023-10-19T02:46:41;2.70;;;1.70;;
35699;SDS011;21818;51.078;12.108;2023-10-19T02:49:07;1.67;;;1.30;;
35699;SDS011;21818;51.078;12.108;2023-10-19T02:51:40;2.70;;;1.88;;
35699;SDS011;21818;51.078;12.108;2023-10-19T02:54:09;4.70;;;2.00;;
35699;SDS011;21818;51.078;12.108;2023-10-19T02:56:43;3.22;;;1.92;;
35699;SDS011;21818;51.078;12.108;2023-10-19T02:59:12;2.15;;;1.50;;
35699;SDS011;21818;51.078;12.108;2023-10-19T03:01:40;3.67;;;1.80;;
35699;SDS011;21818;51.078;12.108;2023-10-19T03:04:09;1.95;;;1.45;;
35699;SDS011;21818;51.078;12.108;2023-10-19T03:06:37;2.53;;;1.63;;
35699;SDS011;21818;51.078;12.108;2023-10-19T03:09:05;3.15;;;1.80;;
35699;SDS011;21818;51.078;12.108;2023-10-19T03:11:47;2.60;;;1.70;;
35699;SDS011;21818;51.078;12.108;2023-10-19T03:14:17;2.38;;;1.70;;
35699;SDS011;21818;51.078;12.108;2023-10-19T03:16:43;2.42;;;1.75;;
35699;SDS011;21818;51.078;12.108;2023-10-19T03:19:10;3.17;;;2.30;;
35699;SDS011;21818;51.078;12.108;2023-10-19T03:21:36;2.92;;;1.95;;
35699;SDS011;21818;51.078;12.108;2023-10-19T03:24:14;2.92;;;1.90;;
35699;SDS011;21818;51.078;12.108;2023-10-19T03:26:59;2.72;;;1.60;;
35699;SDS011;21818;51.078;12.108;2023-10-19T03:29:25;2.13;;;1.70;;
35699;SDS011;21818;51.078;12.108;2023-10-19T03:31:56;3.45;;;1.70;;
35699;SDS011;21818;51.078;12.108;2023-10-19T03:34:23;2.70;;;1.73;;
35699;SDS011;21818;51.078;12.108;2023-10-19T03:36:49;1.67;;;1.35;;
35699;SDS011;21818;51.078;12.108;2023-10-19T03:39:19;2.80;;;1.63;;
35699;SDS011;21818;51.078;12.108;2023-10-19T03:41:46;2.72;;;2.03;;
35699;SDS011;21818;51.078;12.108;2023-10-19T03:44:14;1.92;;;1.55;;
35699;SDS011;21818;51.078;12.108;2023-10-19T03:47:03;2.38;;;1.77;;
35699;SDS011;21818;51.078;12.108;2023-10-19T03:49:30;2.83;;;1.67;;
35699;SDS011;21818;51.078;12.108;2023-10-19T03:52:01;1.90;;;1.45;;
35699;SDS011;21818;51.078;12.108;2023-10-19T03:54:36;2.90;;;1.58;;
35699;SDS011;21818;51.078;12.108;2023-10-19T03:57:05;3.70;;;1.90;;
35699;SDS011;21818;51.078;12.108;2023-10-19T03:59:36;2.40;;;1.67;;
35699;SDS011;21818;51.078;12.108;2023-10-19T04:02:03;1.98;;;1.55;;
35699;SDS011;21818;51.078;12.108;2023-10-19T04:04:38;3.17;;;1.83;;
35699;SDS011;21818;51.078;12.108;2023-10-19T04:07:08;2.95;;;1.70;;
35699;SDS011;21818;51.078;12.108;2023-10-19T04:09:39;3.22;;;1.70;;
35699;SDS011;21818;51.078;12.108;2023-10-19T04:12:22;2.70;;;1.73;;
35699;SDS011;21818;51.078;12.108;2023-10-19T04:14:54;2.20;;;1.63;;
35699;SDS011;21818;51.078;12.108;2023-10-19T04:17:21;2.90;;;1.70;;
35699;SDS011;21818;51.078;12.108;2023-10-19T04:19:48;2.90;;;2.05;;
35699;SDS011;21818;51.078;12.108;2023-10-19T04:22:14;3.22;;;1.48;;
35699;SDS011;21818;51.078;12.108;2023-10-19T04:24:47;2.72;;;1.95;;
35699;SDS011;21818;51.078;12.108;2023-10-19T04:27:12;3.17;;;1.92;;
35699;SDS011;21818;51.078;12.108;2023-10-19T04:29:38;2.42;;;1.42;;
35699;SDS011;21818;51.078;12.108;2023-10-19T04:32:06;1.73;;;1.35;;
35699;SDS011;21818;51.078;12.108;2023-10-19T04:34:32;3.22;;;1.80;;
35699;SDS011;21818;51.078;12.108;2023-10-19T04:36:57;2.03;;;1.50;;
35699;SDS011;21818;51.078;12.108;2023-10-19T04:39:23;2.08;;;1.35;;
35699;SDS011;21818;51.078;12.108;2023-10-19T04:41:49;2.22;;;1.48;;
35699;SDS011;21818;51.078;12.108;2023-10-19T04:44:15;2.47;;;1.65;;
35699;SDS011;21818;51.078;12.108;2023-10-19T04:46:41;3.75;;;1.95;;
35699;SDS011;21818;51.078;12.108;2023-10-19T04:49:07;2.95;;;1.90;;
35699;SDS011;21818;51.078;12.108;2023-10-19T04:51:33;2.78;;;1.60;;
35699;SDS011;21818;51.078;12.108;2023-10-19T04:54:01;2.25;;;1.75;;
35699;SDS011;21818;51.078;12.108;2023-10-19T04:56:27;4.05;;;1.75;;
35699;SDS011;21818;51.078;12.108;2023-10-19T04:58:53;3.47;;;2.05;;
35699;SDS011;21818;51.078;12.108;2023-10-19T05:01:18;2.53;;;1.80;;
35699;SDS011;21818;51.078;12.108;2023-10-19T05:03:44;2.97;;;1.75;;
35699;SDS011;21818;51.078;12.108;2023-10-19T05:06:09;6.18;;;1.85;;
35699;SDS011;21818;51.078;12.108;2023-10-19T05:08:35;24.95;;;4.85;;
35699;SDS011;21818;51.078;12.108;2023-10-19T05:11:02;23.60;;;4.82;;
35699;SDS011;21818;51.078;12.108;2023-10-19T05:13:30;22.08;;;4.28;;
35699;SDS011;21818;51.078;12.108;2023-10-19T05:15:57;18.48;;;3.78;;
35699;SDS011;21818;51.078;12.108;2023-10-19T05:18:26;11.98;;;3.42;;
35699;SDS011;21818;51.078;12.108;2023-10-19T05:20:52;21.63;;;4.55;;
35699;SDS011;21818;51.078;12.108;2023-10-19T05:23:23;14.48;;;3.38;;
35699;SDS011;21818;51.078;12.108;2023-10-19T05:25:52;12.80;;;4.40;;
35699;SDS011;21818;51.078;12.108;2023-10-19T05:28:24;14.25;;;3.38;;
35699;SDS011;21818;51.078;12.108;2023-10-19T05:30:50;19.48;;;4.05;;
35699;SDS011;21818;51.078;12.108;2023-10-19T05:33:15;14.38;;;3.47;;
35699;SDS011;21818;51.078;12.108;2023-10-19T05:35:41;11.63;;;3.60;;
35699;SDS011;21818;51.078;12.108;2023-10-19T05:38:08;12.85;;;3.30;;
35699;SDS011;21818;51.078;12.108;2023-10-19T05:40:34;8.45;;;2.88;;
35699;SDS011;21818;51.078;12.108;2023-10-19T05:43:01;11.38;;;3.25;;
35699;SDS011;21818;51.078;12.108;2023-10-19T05:45:27;11.68;;;4.05;;
35699;SDS011;21818;51.078;12.108;2023-10-19T05:47:55;17.35;;;4.72;;
35699;SDS011;21818;51.078;12.108;2023-10-19T05:50:22;10.15;;;2.78;;
35699;SDS011;21818;51.078;12.108;2023-10-19T05:52:48;16.38;;;3.42;;
35699;SDS011;21818;51.078;12.108;2023-10-19T05:55:14;10.90;;;3.35;;
35699;SDS011;21818;51.078;12.108;2023-10-19T05:57:40;7.78;;;2.63;;
35699;SDS011;21818;51.078;12.108;2023-10-19T06:00:11;11.75;;;3.53;;
35699;SDS011;21818;51.078;12.108;2023-10-19T06:02:47;7.30;;;3.15;;
35699;SDS011;21818;51.078;12.108;2023-10-19T06:05:17;13.48;;;4.43;;
35699;SDS011;21818;51.078;12.108;2023-10-19T06:07:46;11.23;;;3.63;;
35699;SDS011;21818;51.078;12.108;2023-10-19T06:10:14;13.00;;;3.60;;
35699;SDS011;21818;51.078;12.108;2023-10-19T06:12:42;11.35;;;3.50;;
35699;SDS011;21818;51.078;12.108;2023-10-19T06:15:09;9.90;;;3.03;;
35699;SDS011;21818;51.078;12.108;2023-10-19T06:17:40;11.93;;;3.13;;
35699;SDS011;21818;51.078;12.108;2023-10-19T06:20:07;11.48;;;3.60;;
35699;SDS011;21818;51.078;12.108;2023-10-19T06:22:34;14.90;;;3.85;;
35699;SDS011;21818;51.078;12.108;2023-10-19T06:25:00;9.38;;;3.83;;
35699;SDS011;21818;51.078;12.108;2023-10-19T06:27:29;16.05;;;4.25;;
35699;SDS011;21818;51.078;12.108;2023-10-19T06:29:56;13.55;;;4.25;;
35699;SDS011;21818;51.078;12.108;2023-10-19T06:32:22;15.90;;;4.43;;
35699;SDS011;21818;51.078;12.108;2023-10-19T06:34:47;9.82;;;3.92;;
35699;SDS011;21818;51.078;12.108;2023-10-19T06:37:13;9.25;;;3.83;;
35699;SDS011;21818;51.078;12.108;2023-10-19T06:39:38;13.43;;;4.05;;
35699;SDS011;21818;51.078;12.108;2023-10-19T06:42:07;9.35;;;4.93;;
35699;SDS011;21818;51.078;12.108;2023-10-19T06:44:40;8.35;;;3.95;;
35699;SDS011;21818;51.078;12.108;2023-10-19T06:47:07;7.75;;;3.63;;
35699;SDS011;21818;51.078;12.108;2023-10-19T06:49:33;8.63;;;3.13;;
35699;SDS011;21818;51.078;12.108;2023-10-19T06:51:59;6.97;;;3.42;;
35699;SDS011;21818;51.078;12.108;2023-10-19T06:54:25;9.63;;;3.20;;
35699;SDS011;21818;51.078;12.108;2023-10-19T06:56:52;11.40;;;3.72;;
35699;SDS011;21818;51.078;12.108;2023-10-19T06:59:18;7.60;;;3.35;;
35699;SDS011;21818;51.078;12.108;2023-10-19T07:01:44;11.90;;;4.00;;
35699;SDS011;21818;51.078;12.108;2023-10-19T07:04:11;8.27;;;3.40;;
35699;SDS011;21818;51.078;12.108;2023-10-19T07:06:38;8.63;;;3.80;;
35699;SDS011;21818;51.078;12.108;2023-10-19T07:09:04;9.93;;;3.88;;
35699;SDS011;21818;51.078;12.108;2023-10-19T07:11:31;10.10;;;3.90;;
35699;SDS011;21818;51.078;12.108;2023-10-19T07:13:58;7.63;;;3.67;;
35699;SDS011;21818;51.078;12.108;2023-10-19T07:16:25;8.43;;;3.83;;
35699;SDS011;21818;51.078;12.108;2023-10-19T07:18:51;8.70;;;3.70;;
35699;SDS011;21818;51.078;12.108;2023-10-19T07:21:18;8.18;;;4.15;;
35699;SDS011;21818;51.078;12.108;2023-10-19T07:23:44;10.52;;;4.22;;
35699;SDS011;21818;51.078;12.108;2023-10-19T07:26:10;7.72;;;3.92;;
35699;SDS011;21818;51.078;12.108;2023-10-19T07:28:38;7.95;;;3.83;;
35699;SDS011;21818;51.078;12.108;2023-10-19T07:31:04;6.95;;;4.03;;
35699;SDS011;21818;51.078;12.108;2023-10-19T07:33:37;6.93;;;3.95;;
35699;SDS011;21818;51.078;12.108;2023-10-19T07:36:11;8.55;;;3.63;;
35699;SDS011;21818;51.078;12.108;2023-10-19T07:38:39;8.00;;;3.80;;
35699;SDS011;21818;51.078;12.108;2023-10-19T07:41:07;6.43;;;3.30;;
35699;SDS011;21818;51.078;12.108;2023-10-19T07:43:34;10.70;;;4.30;;
35699;SDS011;21818;51.078;12.108;2023-10-19T07:46:00;6.43;;;3.42;;
35699;SDS011;21818;51.078;12.108;2023-10-19T07:48:26;8.07;;;3.15;;
35699;SDS011;21818;51.078;12.108;2023-10-19T07:50:52;5.35;;;2.60;;
35699;SDS011;21818;51.078;12.108;2023-10-19T07:53:18;8.43;;;3.13;;
35699;SDS011;21818;51.078;12.108;2023-10-19T07:55:44;5.60;;;3.33;;
35699;SDS011;21818;51.078;12.108;2023-10-19T07:58:09;6.63;;;3.33;;
35699;SDS011;21818;51.078;12.108;2023-10-19T08:00:35;5.35;;;3.25;;
35699;SDS011;21818;51.078;12.108;2023-10-19T08:03:04;8.88;;;3.80;;
35699;SDS011;21818;51.078;12.108;2023-10-19T08:05:30;6.03;;;3.63;;
35699;SDS011;21818;51.078;12.108;2023-10-19T08:07:57;7.30;;;4.28;;
35699;SDS011;21818;51.078;12.108;2023-10-19T08:10:26;7.07;;;3.03;;
35699;SDS011;21818;51.078;12.108;2023-10-19T08:12:52;7.70;;;3.67;;
35699;SDS011;21818;51.078;12.108;2023-10-19T08:15:18;5.40;;;3.70;;
35699;SDS011;21818;51.078;12.108;2023-10-19T08:17:45;7.68;;;3.38;;
35699;SDS011;21818;51.078;12.108;2023-10-19T08:20:13;6.13;;;3.55;;
35699;SDS011;21818;51.078;12.108;2023-10-19T08:22:43;5.70;;;3.22;;
35699;SDS011;21818;51.078;12.108;2023-10-19T08:25:11;6.93;;;3.20;;
35699;SDS011;21818;51.078;12.108;2023-10-19T08:27:39;8.45;;;3.42;;
35699;SDS011;21818;51.078;12.108;2023-10-19T08:30:09;7.15;;;2.90;;
35699;SDS011;21818;51.078;12.108;2023-10-19T08:32:35;5.60;;;2.47;;
35699;SDS011;21818;51.078;12.108;2023-10-19T08:35:01;4.88;;;2.20;;
35699;SDS011;21818;51.078;12.108;2023-10-19T08:37:28;4.43;;;2.90;;
35699;SDS011;21818;51.078;12.108;2023-10-19T08:39:53;7.22;;;4.32;;
35699;SDS011;21818;51.078;12.108;2023-10-19T08:42:19;8.77;;;3.95;;
35699;SDS011;21818;51.078;12.108;2023-10-19T08:44:46;7.93;;;3.88;;
35699;SDS011;21818;51.078;12.108;2023-10-19T08:47:12;7.05;;;3.88;;
35699;SDS011;21818;51.078;12.108;2023-10-19T08:49:37;7.40;;;3.80;;
35699;SDS011;21818;51.078;12.108;2023-10-19T08:52:03;8.75;;;3.60;;
35699;SDS011;21818;51.078;12.108;2023-10-19T08:54:32;6.63;;;3.47;;
35699;SDS011;21818;51.078;12.108;2023-10-19T08:56:59;7.55;;;3.53;;
35699;SDS011;21818;51.078;12.108;2023-10-19T08:59:25;8.38;;;3.78;;
35699;SDS011;21818;51.078;12.108;2023-10-19T09:01:59;5.68;;;2.38;;
35699;SDS011;21818;51.078;12.108;2023-10-19T09:04:26;4.00;;;2.15;;
35699;SDS011;21818;51.078;12.108;2023-10-19T09:06:53;4.03;;;2.38;;
35699;SDS011;21818;51.078;12.108;2023-10-19T09:09:20;7.60;;;3.08;;
35699;SDS011;21818;51.078;12.108;2023-10-19T09:11:46;7.10;;;2.88;;
35699;SDS011;21818;51.078;12.108;2023-10-19T09:14:13;4.65;;;2.50;;
35699;SDS011;21818;51.078;12.108;2023-10-19T09:16:55;4.30;;;2.20;;
35699;SDS011;21818;51.078;12.108;2023-10-19T09:19:37;3.97;;;2.00;;
35699;SDS011;21818;51.078;12.108;2023-10-19T09:22:05;4.47;;;2.65;;
35699;SDS011;21818;51.078;12.108;2023-10-19T09:24:35;5.50;;;3.28;;
35699;SDS011;21818;51.078;12.108;2023-10-19T09:27:04;8.27;;;3.00;;
35699;SDS011;21818;51.078;12.108;2023-10-19T09:29:30;4.85;;;3.00;;
35699;SDS011;21818;51.078;12.108;2023-10-19T09:31:59;5.90;;;3.05;;
35699;SDS011;21818;51.078;12.108;2023-10-19T09:34:30;4.30;;;3.10;;
35699;SDS011;21818;51.078;12.108;2023-10-19T09:37:01;7.70;;;3.00;;
35699;SDS011;21818;51.078;12.108;2023-10-19T09:39:31;6.60;;;3.67;;
35699;SDS011;21818;51.078;12.108;2023-10-19T09:42:01;6.65;;;3.58;;
35699;SDS011;21818;51.078;12.108;2023-10-19T09:44:34;4.50;;;2.90;;
35699;SDS011;21818;51.078;12.108;2023-10-19T09:47:13;4.15;;;2.90;;
35699;SDS011;21818;51.078;12.108;2023-10-19T09:49:42;6.93;;;3.17;;
35699;SDS011;21818;51.078;12.108;2023-10-19T09:52:08;6.85;;;3.00;;
35699;SDS011;21818;51.078;12.108;2023-10-19T09:54:41;4.88;;;3.00;;
35699;SDS011;21818;51.078;12.108;2023-10-19T09:57:48;4.53;;;2.78;;
35699;SDS011;21818;51.078;12.108;2023-10-19T10:00:17;4.97;;;2.88;;
35699;SDS011;21818;51.078;12.108;2023-10-19T10:02:48;4.38;;;2.85;;
35699;SDS011;21818;51.078;12.108;2023-10-19T10:10:46;5.60;;;3.00;;
35699;SDS011;21818;51.078;12.108;2023-10-19T10:15:56;6.47;;;3.05;;
35699;SDS011;21818;51.078;12.108;2023-10-19T10:18:33;6.50;;;3.55;;
35699;SDS011;21818;51.078;12.108;2023-10-19T10:21:16;3.90;;;2.70;;
35699;SDS011;21818;51.078;12.108;2023-10-19T10:23:55;5.75;;;3.90;;
35699;SDS011;21818;51.078;12.108;2023-10-19T10:26:26;5.72;;;2.97;;
35699;SDS011;21818;51.078;12.108;2023-10-19T10:29:13;4.93;;;3.17;;
35699;SDS011;21818;51.078;12.108;2023-10-19T10:31:47;6.03;;;2.80;;
35699;SDS011;21818;51.078;12.108;2023-10-19T10:37:06;5.68;;;2.70;;
35699;SDS011;21818;51.078;12.108;2023-10-19T10:39:33;4.82;;;3.13;;
35699;SDS011;21818;51.078;12.108;2023-10-19T10:42:03;6.20;;;3.78;;
35699;SDS011;21818;51.078;12.108;2023-10-19T10:44:37;4.63;;;3.40;;
35699;SDS011;21818;51.078;12.108;2023-10-19T10:47:22;4.95;;;3.28;;
35699;SDS011;21818;51.078;12.108;2023-10-19T10:54:53;5.68;;;3.05;;
35699;SDS011;21818;51.078;12.108;2023-10-19T10:57:20;6.82;;;3.08;;
35699;SDS011;21818;51.078;12.108;2023-10-19T10:59:45;5.15;;;3.10;;
35699;SDS011;21818;51.078;12.108;2023-10-19T11:02:21;5.47;;;3.20;;
35699;SDS011;21818;51.078;12.108;2023-10-19T11:04:47;6.80;;;3.97;;
35699;SDS011;21818;51.078;12.108;2023-10-19T11:07:19;6.00;;;4.00;;
35699;SDS011;21818;51.078;12.108;2023-10-19T11:09:48;5.75;;;3.13;;
35699;SDS011;21818;51.078;12.108;2023-10-19T11:12:14;5.32;;;2.65;;
35699;SDS011;21818;51.078;12.108;2023-10-19T11:14:54;6.05;;;2.30;;
35699;SDS011;21818;51.078;12.108;2023-10-19T11:17:22;5.18;;;2.58;;
35699;SDS011;21818;51.078;12.108;2023-10-19T11:19:56;4.32;;;2.65;;
35699;SDS011;21818;51.078;12.108;2023-10-19T11:22:22;6.40;;;2.70;;
35699;SDS011;21818;51.078;12.108;2023-10-19T11:24:54;5.07;;;2.22;;
35699;SDS011;21818;51.078;12.108;2023-10-19T11:27:24;4.97;;;2.78;;
35699;SDS011;21818;51.078;12.108;2023-10-19T11:29:56;4.63;;;2.50;;
35699;SDS011;21818;51.078;12.108;2023-10-19T11:32:23;3.88;;;2.70;;
35699;SDS011;21818;51.078;12.108;2023-10-19T11:35:00;4.70;;;2.70;;
35699;SDS011;21818;51.078;12.108;2023-10-19T11:37:26;5.97;;;3.05;;
35699;SDS011;21818;51.078;12.108;2023-10-19T11:39:52;3.63;;;2.50;;
35699;SDS011;21818;51.078;12.108;2023-10-19T11:42:17;6.47;;;3.10;;
35699;SDS011;21818;51.078;12.108;2023-10-19T11:44:43;4.63;;;3.20;;
35699;SDS011;21818;51.078;12.108;2023-10-19T11:47:10;4.15;;;2.53;;
35699;SDS011;21818;51.078;12.108;2023-10-19T11:49:35;6.50;;;3.05;;
35699;SDS011;21818;51.078;12.108;2023-10-19T11:52:06;4.75;;;2.67;;
35699;SDS011;21818;51.078;12.108;2023-10-19T11:54:34;4.03;;;2.42;;
35699;SDS011;21818;51.078;12.108;2023-10-19T11:57:00;4.55;;;3.10;;
35699;SDS011;21818;51.078;12.108;2023-10-19T11:59:27;3.75;;;2.38;;
35699;SDS011;21818;51.078;12.108;2023-10-19T12:01:52;4.07;;;2.75;;
35699;SDS011;21818;51.078;12.108;2023-10-19T12:04:19;4.25;;;2.92;;
35699;SDS011;21818;51.078;12.108;2023-10-19T12:06:45;4.60;;;2.80;;
35699;SDS011;21818;51.078;12.108;2023-10-19T12:09:13;4.53;;;2.33;;
35699;SDS011;21818;51.078;12.108;2023-10-19T12:11:42;4.28;;;2.28;;
35699;SDS011;21818;51.078;12.108;2023-10-19T12:14:09;3.42;;;2.13;;
35699;SDS011;21818;51.078;12.108;2023-10-19T12:16:39;3.65;;;2.47;;
35699;SDS011;21818;51.078;12.108;2023-10-19T12:19:06;4.43;;;2.40;;
35699;SDS011;21818;51.078;12.108;2023-10-19T12:21:33;4.85;;;2.63;;
35699;SDS011;21818;51.078;12.108;2023-10-19T12:23:58;2.80;;;2.00;;
35699;SDS011;21818;51.078;12.108;2023-10-19T12:26:26;4.05;;;2.42;;
35699;SDS011;21818;51.078;12.108;2023-10-19T12:28:52;6.60;;;2.22;;
35699;SDS011;21818;51.078;12.108;2023-10-19T12:31:17;6.20;;;2.88;;
35699;SDS011;21818;51.078;12.108;2023-10-19T12:33:43;3.72;;;2.45;;
35699;SDS011;21818;51.078;12.108;2023-10-19T12:36:10;3.45;;;2.20;;
35699;SDS011;21818;51.078;12.108;2023-10-19T12:38:53;3.35;;;2.30;;
35699;SDS011;21818;51.078;12.108;2023-10-19T12:41:20;3.90;;;2.22;;
35699;SDS011;21818;51.078;12.108;2023-10-19T12:43:46;3.35;;;2.15;;
35699;SDS011;21818;51.078;12.108;2023-10-19T12:46:15;4.55;;;2.45;;
35699;SDS011;21818;51.078;12.108;2023-10-19T12:48:41;3.42;;;2.42;;
35699;SDS011;21818;51.078;12.108;2023-10-19T12:51:07;3.65;;;2.38;;
35699;SDS011;21818;51.078;12.108;2023-10-19T12:53:34;3.60;;;2.33;;
35699;SDS011;21818;51.078;12.108;2023-10-19T12:56:00;3.13;;;2.13;;
35699;SDS011;21818;51.078;12.108;2023-10-19T12:58:25;5.47;;;1.83;;
35699;SDS011;21818;51.078;12.108;2023-10-19T13:00:52;5.85;;;2.58;;
35699;SDS011;21818;51.078;12.108;2023-10-19T13:03:19;2.95;;;1.88;;
35699;SDS011;21818;51.078;12.108;2023-10-19T13:05:46;3.00;;;2.20;;
35699;SDS011;21818;51.078;12.108;2023-10-19T13:08:15;3.33;;;2.35;;
35699;SDS011;21818;51.078;12.108;2023-10-19T13:10:42;4.55;;;2.15;;
35699;SDS011;21818;51.078;12.108;2023-10-19T13:13:09;2.95;;;1.65;;
35699;SDS011;21818;51.078;12.108;2023-10-19T13:15:40;5.43;;;2.60;;
35699;SDS011;21818;51.078;12.108;2023-10-19T13:18:07;3.13;;;2.10;;
35699;SDS011;21818;51.078;12.108;2023-10-19T13:23:05;3.58;;;2.05;;
35699;SDS011;21818;51.078;12.108;2023-10-19T13:25:36;3.08;;;2.20;;
35699;SDS011;21818;51.078;12.108;2023-10-19T13:28:21;2.75;;;1.70;;
35699;SDS011;21818;51.078;12.108;2023-10-19T13:33:13;3.53;;;1.92;;
35699;SDS011;21818;51.078;12.108;2023-10-19T13:35:40;2.65;;;1.98;;
35699;SDS011;21818;51.078;12.108;2023-10-19T13:38:07;3.08;;;2.05;;
35699;SDS011;21818;51.078;12.108;2023-10-19T13:40:34;3.42;;;2.15;;
35699;SDS011;21818;51.078;12.108;2023-10-19T13:43:01;2.88;;;1.80;;
35699;SDS011;21818;51.078;12.108;2023-10-19T13:45:29;3.75;;;1.88;;
35699;SDS011;21818;51.078;12.108;2023-10-19T13:47:58;2.85;;;2.03;;
35699;SDS011;21818;51.078;12.108;2023-10-19T13:50:25;3.65;;;2.28;;
35699;SDS011;21818;51.078;12.108;2023-10-19T13:52:53;3.22;;;2.40;;
35699;SDS011;21818;51.078;12.108;2023-10-19T13:55:19;3.25;;;2.00;;
35699;SDS011;21818;51.078;12.108;2023-10-19T13:57:46;4.70;;;2.13;;
35699;SDS011;21818;51.078;12.108;2023-10-19T14:00:13;3.63;;;2.28;;
35699;SDS011;21818;51.078;12.108;2023-10-19T14:02:58;3.58;;;1.90;;
35699;SDS011;21818;51.078;12.108;2023-10-19T14:05:25;2.30;;;1.75;;
35699;SDS011;21818;51.078;12.108;2023-10-19T14:07:55;3.30;;;1.95;;
35699;SDS011;21818;51.078;12.108;2023-10-19T14:10:21;3.63;;;2.45;;
35699;SDS011;21818;51.078;12.108;2023-10-19T14:12:46;2.85;;;1.95;;
35699;SDS011;21818;51.078;12.108;2023-10-19T14:15:17;3.67;;;1.90;;
35699;SDS011;21818;51.078;12.108;2023-10-19T14:17:44;2.55;;;1.77;;
35699;SDS011;21818;51.078;12.108;2023-10-19T14:20:11;2.72;;;1.98;;
35699;SDS011;21818;51.078;12.108;2023-10-19T14:25:08;2.92;;;1.90;;
35699;SDS011;21818;51.078;12.108;2023-10-19T14:27:37;2.45;;;1.60;;
35699;SDS011;21818;51.078;12.108;2023-10-19T14:30:10;3.38;;;1.95;;
35699;SDS011;21818;51.078;12.108;2023-10-19T14:32:40;3.55;;;1.90;;
35699;SDS011;21818;51.078;12.108;2023-10-19T14:35:07;2.75;;;1.65;;
35699;SDS011;21818;51.078;12.108;2023-10-19T14:37:39;2.47;;;1.88;;
35699;SDS011;21818;51.078;12.108;2023-10-19T14:40:07;3.95;;;1.55;;
35699;SDS011;21818;51.078;12.108;2023-10-19T14:42:37;4.13;;;2.35;;
35699;SDS011;21818;51.078;12.108;2023-10-19T14:45:07;3.95;;;2.08;;
35699;SDS011;21818;51.078;12.108;2023-10-19T14:47:37;3.22;;;1.90;;
35699;SDS011;21818;51.078;12.108;2023-10-19T14:50:10;2.58;;;2.00;;
35699;SDS011;21818;51.078;12.108;2023-10-19T14:52:38;3.17;;;1.80;;
35699;SDS011;21818;51.078;12.108;2023-10-19T14:55:08;2.47;;;1.80;;
35699;SDS011;21818;51.078;12.108;2023-10-19T14:57:35;3.10;;;2.20;;
35699;SDS011;21818;51.078;12.108;2023-10-19T15:00:02;5.47;;;2.40;;
35699;SDS011;21818;51.078;12.108;2023-10-19T15:02:39;3.28;;;1.92;;
35699;SDS011;21818;51.078;12.108;2023-10-19T15:05:10;4.03;;;1.95;;
35699;SDS011;21818;51.078;12.108;2023-10-19T15:10:11;3.97;;;1.83;;
35699;SDS011;21818;51.078;12.108;2023-10-19T15:12:40;2.92;;;2.05;;